sensor_id;sensor_type;location;lat;lon;timestamp;pressure;altitude;pressure_sealevel;temperature;humidity
12963;BME280;6546;49.882;8.666;2023-05-03T00:02:17;101059.50;;;9.82;58.17
12963;BME280;6546;49.882;8.666;2023-05-03T00:04:44;101063.03;;;9.90;57.79
12963;BME280;6546;49.882;8.666;2023-05-03T00:07:12;101062.66;;;9.95;57.67
12963;BME280;6546;49.882;8.666;2023-05-03T00:09:39;101060.84;;;9.86;57.93
12963;BME280;6546;49.882;8.666;2023-05-03T00:12:06;101064.09;;;9.78;57.78
12963;BME280;6546;49.882;8.666;2023-05-03T00:14:32;101065.75;;;9.89;57.71
12963;BME280;6546;49.882;8.666;2023-05-03T00:16:59;101062.06;;;9.72;57.73
12963;BME280;6546;49.882;8.666;2023-05-03T00:19:27;101056.75;;;9.74;57.82
12963;BME280;6546;49.882;8.666;2023-05-03T00:21:58;101056.59;;;9.66;58.44
12963;BME280;6546;49.882;8.666;2023-05-03T00:24:24;101064.63;;;9.63;58.21
12963;BME280;6546;49.882;8.666;2023-05-03T00:26:51;101063.50;;;9.56;58.60
12963;BME280;6546;49.882;8.666;2023-05-03T00:29:18;101061.31;;;9.61;58.35
12963;BME280;6546;49.882;8.666;2023-05-03T00:31:47;101056.41;;;9.58;58.42
12963;BME280;6546;49.882;8.666;2023-05-03T00:34:13;101049.88;;;9.54;58.69
12963;BME280;6546;49.882;8.666;2023-05-03T00:36:42;101052.84;;;9.49;58.66
12963;BME280;6546;49.882;8.666;2023-05-03T00:39:08;101049.84;;;9.44;58.60
12963;BME280;6546;49.882;8.666;2023-05-03T00:41:35;101051.22;;;9.48;58.51
12963;BME280;6546;49.882;8.666;2023-05-03T00:44:02;101047.41;;;9.42;58.55
12963;BME280;6546;49.882;8.666;2023-05-03T00:46:29;101040.56;;;9.41;58.56
12963;BME280;6546;49.882;8.666;2023-05-03T00:48:56;101044.38;;;9.37;58.58
12963;BME280;6546;49.882;8.666;2023-05-03T00:51:25;101042.31;;;9.31;58.98
12963;BME280;6546;49.882;8.666;2023-05-03T00:53:55;101038.13;;;9.40;58.81
12963;BME280;6546;49.882;8.666;2023-05-03T00:56:22;101029.56;;;9.39;58.66
12963;BME280;6546;49.882;8.666;2023-05-03T00:58:50;101030.75;;;9.35;58.91
12963;BME280;6546;49.882;8.666;2023-05-03T01:01:17;101025.84;;;9.32;58.90
12963;BME280;6546;49.882;8.666;2023-05-03T01:03:46;101023.66;;;9.28;58.87
12963;BME280;6546;49.882;8.666;2023-05-03T01:06:21;101019.75;;;9.33;59.03
12963;BME280;6546;49.882;8.666;2023-05-03T01:08:58;101024.09;;;9.33;59.08
12963;BME280;6546;49.882;8.666;2023-05-03T01:11:34;101025.97;;;9.31;59.08
12963;BME280;6546;49.882;8.666;2023-05-03T01:14:08;101025.84;;;9.32;59.03
12963;BME280;6546;49.882;8.666;2023-05-03T01:16:39;101025.59;;;9.35;59.16
12963;BME280;6546;49.882;8.666;2023-05-03T01:19:25;101021.34;;;9.25;59.03
12963;BME280;6546;49.882;8.666;2023-05-03T01:22:01;101022.00;;;9.17;59.08
12963;BME280;6546;49.882;8.666;2023-05-03T01:24:33;101028.53;;;9.21;59.11
12963;BME280;6546;49.882;8.666;2023-05-03T01:27:04;101023.34;;;9.21;59.24
12963;BME280;6546;49.882;8.666;2023-05-03T01:29:30;101024.91;;;9.03;59.56
12963;BME280;6546;49.882;8.666;2023-05-03T01:32:02;101017.53;;;8.98;59.94
12963;BME280;6546;49.882;8.666;2023-05-03T01:34:39;101015.97;;;9.07;59.84
12963;BME280;6546;49.882;8.666;2023-05-03T01:37:07;101008.53;;;8.93;59.57
12963;BME280;6546;49.882;8.666;2023-05-03T01:39:37;101015.88;;;8.88;59.98
12963;BME280;6546;49.882;8.666;2023-05-03T01:42:08;101006.78;;;8.73;60.21
12963;BME280;6546;49.882;8.666;2023-05-03T01:44:35;100997.34;;;8.83;60.17
12963;BME280;6546;49.882;8.666;2023-05-03T01:47:02;101007.69;;;8.83;60.16
12963;BME280;6546;49.882;8.666;2023-05-03T01:49:29;101002.75;;;8.80;60.14
12963;BME280;6546;49.882;8.666;2023-05-03T01:51:58;100989.44;;;8.75;60.03
12963;BME280;6546;49.882;8.666;2023-05-03T01:54:25;101006.91;;;8.92;59.71
12963;BME280;6546;49.882;8.666;2023-05-03T01:56:51;100997.66;;;8.89;59.63
12963;BME280;6546;49.882;8.666;2023-05-03T01:59:19;101001.19;;;8.88;59.84
12963;BME280;6546;49.882;8.666;2023-05-03T02:01:46;101004.16;;;8.84;59.58
12963;BME280;6546;49.882;8.666;2023-05-03T02:04:13;101001.13;;;8.79;59.57
12963;BME280;6546;49.882;8.666;2023-05-03T02:06:39;101000.19;;;8.80;59.89
12963;BME280;6546;49.882;8.666;2023-05-03T02:09:06;101008.63;;;8.82;59.96
12963;BME280;6546;49.882;8.666;2023-05-03T02:11:33;101010.50;;;8.80;59.77
12963;BME280;6546;49.882;8.666;2023-05-03T02:13:59;101015.69;;;8.80;60.03
12963;BME280;6546;49.882;8.666;2023-05-03T02:16:27;101009.63;;;8.70;60.10
12963;BME280;6546;49.882;8.666;2023-05-03T02:18:54;101008.50;;;8.63;59.80
12963;BME280;6546;49.882;8.666;2023-05-03T02:21:23;101025.78;;;8.62;59.85
12963;BME280;6546;49.882;8.666;2023-05-03T02:23:50;101029.47;;;8.49;60.36
12963;BME280;6546;49.882;8.666;2023-05-03T02:26:19;101025.50;;;8.44;60.30
12963;BME280;6546;49.882;8.666;2023-05-03T02:28:46;101027.97;;;8.46;60.51
12963;BME280;6546;49.882;8.666;2023-05-03T02:31:12;101025.75;;;8.41;60.78
12963;BME280;6546;49.882;8.666;2023-05-03T02:33:40;101027.75;;;8.38;60.95
12963;BME280;6546;49.882;8.666;2023-05-03T02:36:07;101031.16;;;8.38;60.95
12963;BME280;6546;49.882;8.666;2023-05-03T02:38:34;101017.38;;;8.28;60.75
12963;BME280;6546;49.882;8.666;2023-05-03T02:41:03;101029.75;;;8.34;60.92
12963;BME280;6546;49.882;8.666;2023-05-03T02:43:29;101027.56;;;8.30;60.97
12963;BME280;6546;49.882;8.666;2023-05-03T02:45:56;101024.59;;;8.34;61.11
12963;BME280;6546;49.882;8.666;2023-05-03T02:48:23;101027.41;;;8.42;61.02
12963;BME280;6546;49.882;8.666;2023-05-03T02:50:51;101016.28;;;8.31;60.81
12963;BME280;6546;49.882;8.666;2023-05-03T02:53:19;101018.25;;;8.27;60.95
12963;BME280;6546;49.882;8.666;2023-05-03T02:55:45;101033.41;;;8.21;61.23
12963;BME280;6546;49.882;8.666;2023-05-03T02:58:12;101026.00;;;8.27;61.06
12963;BME280;6546;49.882;8.666;2023-05-03T03:00:39;101029.56;;;8.26;61.09
12963;BME280;6546;49.882;8.666;2023-05-03T03:03:06;101027.94;;;8.14;61.37
12963;BME280;6546;49.882;8.666;2023-05-03T03:05:32;101031.34;;;8.15;61.66
12963;BME280;6546;49.882;8.666;2023-05-03T03:08:00;101019.41;;;8.14;61.86
12963;BME280;6546;49.882;8.666;2023-05-03T03:10:27;101019.72;;;8.20;61.67
12963;BME280;6546;49.882;8.666;2023-05-03T03:12:53;101020.97;;;8.26;61.09
12963;BME280;6546;49.882;8.666;2023-05-03T03:15:20;101023.25;;;8.19;61.02
12963;BME280;6546;49.882;8.666;2023-05-03T03:17:47;101022.91;;;8.13;61.45
12963;BME280;6546;49.882;8.666;2023-05-03T03:20:13;101016.44;;;8.18;61.21
12963;BME280;6546;49.882;8.666;2023-05-03T03:22:40;101021.00;;;8.15;61.95
12963;BME280;6546;49.882;8.666;2023-05-03T03:25:09;101027.91;;;8.25;61.41
12963;BME280;6546;49.882;8.666;2023-05-03T03:27:36;101026.63;;;8.20;60.92
12963;BME280;6546;49.882;8.666;2023-05-03T03:30:03;101031.00;;;8.08;61.28
12963;BME280;6546;49.882;8.666;2023-05-03T03:32:32;101028.47;;;7.97;61.30
12963;BME280;6546;49.882;8.666;2023-05-03T03:34:59;101024.50;;;7.82;61.76
12963;BME280;6546;49.882;8.666;2023-05-03T03:37:26;101030.72;;;7.90;61.60
12963;BME280;6546;49.882;8.666;2023-05-03T03:39:53;101024.47;;;8.04;61.66
12963;BME280;6546;49.882;8.666;2023-05-03T03:42:21;101028.97;;;7.91;61.53
12963;BME280;6546;49.882;8.666;2023-05-03T03:44:50;101020.75;;;7.97;61.52
12963;BME280;6546;49.882;8.666;2023-05-03T03:47:16;101016.28;;;7.99;61.57
12963;BME280;6546;49.882;8.666;2023-05-03T03:49:43;101026.09;;;8.05;61.38
12963;BME280;6546;49.882;8.666;2023-05-03T03:52:09;101016.28;;;7.99;61.22
12963;BME280;6546;49.882;8.666;2023-05-03T03:54:36;101014.94;;;8.05;60.61
12963;BME280;6546;49.882;8.666;2023-05-03T03:57:03;101012.94;;;8.08;60.23
12963;BME280;6546;49.882;8.666;2023-05-03T03:59:31;101013.50;;;7.91;60.88
12963;BME280;6546;49.882;8.666;2023-05-03T04:01:57;101012.09;;;7.87;61.19
12963;BME280;6546;49.882;8.666;2023-05-03T04:04:24;101023.91;;;7.89;60.94
12963;BME280;6546;49.882;8.666;2023-05-03T04:06:51;101015.41;;;7.78;60.87
12963;BME280;6546;49.882;8.666;2023-05-03T04:09:17;101018.22;;;7.75;61.46
12963;BME280;6546;49.882;8.666;2023-05-03T04:11:44;101023.75;;;7.59;62.12
12963;BME280;6546;49.882;8.666;2023-05-03T04:14:11;101027.84;;;7.62;61.89
12963;BME280;6546;49.882;8.666;2023-05-03T04:16:39;101038.63;;;7.56;62.37
12963;BME280;6546;49.882;8.666;2023-05-03T04:19:05;101044.25;;;7.61;62.02
12963;BME280;6546;49.882;8.666;2023-05-03T04:21:32;101035.34;;;7.54;62.19
12963;BME280;6546;49.882;8.666;2023-05-03T04:23:59;101036.97;;;7.44;62.68
12963;BME280;6546;49.882;8.666;2023-05-03T04:26:28;101043.34;;;7.39;63.00
12963;BME280;6546;49.882;8.666;2023-05-03T04:28:55;101040.28;;;7.34;62.93
12963;BME280;6546;49.882;8.666;2023-05-03T04:31:21;101050.34;;;7.37;62.86
12963;BME280;6546;49.882;8.666;2023-05-03T04:33:49;101047.78;;;7.26;63.35
12963;BME280;6546;49.882;8.666;2023-05-03T04:36:16;101056.44;;;7.25;63.99
12963;BME280;6546;49.882;8.666;2023-05-03T04:38:43;101054.81;;;7.35;63.29
12963;BME280;6546;49.882;8.666;2023-05-03T04:41:10;101054.09;;;7.33;63.50
12963;BME280;6546;49.882;8.666;2023-05-03T04:43:36;101046.34;;;7.33;63.13
12963;BME280;6546;49.882;8.666;2023-05-03T04:46:03;101038.19;;;7.39;63.34
12963;BME280;6546;49.882;8.666;2023-05-03T04:48:33;101058.09;;;7.49;63.01
12963;BME280;6546;49.882;8.666;2023-05-03T04:51:01;101054.34;;;7.53;62.86
12963;BME280;6546;49.882;8.666;2023-05-03T04:53:28;101063.44;;;7.57;62.78
12963;BME280;6546;49.882;8.666;2023-05-03T04:55:55;101059.94;;;7.69;62.40
12963;BME280;6546;49.882;8.666;2023-05-03T04:58:22;101062.97;;;7.74;62.19
12963;BME280;6546;49.882;8.666;2023-05-03T05:00:48;101068.56;;;7.79;61.87
12963;BME280;6546;49.882;8.666;2023-05-03T05:03:15;101055.81;;;7.77;61.58
12963;BME280;6546;49.882;8.666;2023-05-03T05:05:42;101065.53;;;7.85;61.53
12963;BME280;6546;49.882;8.666;2023-05-03T05:08:10;101062.97;;;7.74;61.50
12963;BME280;6546;49.882;8.666;2023-05-03T05:10:36;101060.03;;;7.78;61.72
12963;BME280;6546;49.882;8.666;2023-05-03T05:13:08;101061.28;;;7.95;61.51
12963;BME280;6546;49.882;8.666;2023-05-03T05:15:35;101061.75;;;8.00;61.45
12963;BME280;6546;49.882;8.666;2023-05-03T05:18:02;101067.59;;;8.13;61.06
12963;BME280;6546;49.882;8.666;2023-05-03T05:20:28;101069.19;;;8.25;60.72
12963;BME280;6546;49.882;8.666;2023-05-03T05:22:55;101072.94;;;8.21;60.33
12963;BME280;6546;49.882;8.666;2023-05-03T05:25:23;101061.94;;;8.19;60.23
12963;BME280;6546;49.882;8.666;2023-05-03T05:27:50;101049.19;;;8.07;60.37
12963;BME280;6546;49.882;8.666;2023-05-03T05:30:17;101065.69;;;8.15;60.34
12963;BME280;6546;49.882;8.666;2023-05-03T05:32:44;101066.59;;;8.36;60.19
12963;BME280;6546;49.882;8.666;2023-05-03T05:35:10;101072.88;;;8.43;59.58
12963;BME280;6546;49.882;8.666;2023-05-03T05:37:40;101067.88;;;8.42;59.45
12963;BME280;6546;49.882;8.666;2023-05-03T05:40:07;101069.84;;;8.50;59.43
12963;BME280;6546;49.882;8.666;2023-05-03T05:42:38;101066.00;;;8.65;59.11
12963;BME280;6546;49.882;8.666;2023-05-03T05:45:06;101065.50;;;8.71;58.90
12963;BME280;6546;49.882;8.666;2023-05-03T05:47:33;101064.28;;;8.95;58.14
12963;BME280;6546;49.882;8.666;2023-05-03T05:50:00;101067.69;;;9.57;57.78
12963;BME280;6546;49.882;8.666;2023-05-03T05:52:30;101060.94;;;11.55;52.70
12963;BME280;6546;49.882;8.666;2023-05-03T05:54:57;101068.69;;;14.40;43.89
12963;BME280;6546;49.882;8.666;2023-05-03T05:57:24;101061.56;;;17.05;37.57
12963;BME280;6546;49.882;8.666;2023-05-03T05:59:52;101062.72;;;18.81;33.23
12963;BME280;6546;49.882;8.666;2023-05-03T06:02:24;101066.22;;;19.23;31.36
12963;BME280;6546;49.882;8.666;2023-05-03T06:04:51;101059.75;;;20.66;28.94
12963;BME280;6546;49.882;8.666;2023-05-03T06:07:18;101057.94;;;21.64;27.33
12963;BME280;6546;49.882;8.666;2023-05-03T06:09:45;101055.47;;;23.24;25.16
12963;BME280;6546;49.882;8.666;2023-05-03T06:12:13;101053.31;;;23.98;23.88
12963;BME280;6546;49.882;8.666;2023-05-03T06:14:43;101050.66;;;25.21;22.82
12963;BME280;6546;49.882;8.666;2023-05-03T06:17:11;101069.75;;;24.19;22.38
12963;BME280;6546;49.882;8.666;2023-05-03T06:19:38;101050.91;;;24.73;22.46
12963;BME280;6546;49.882;8.666;2023-05-03T06:22:05;101051.06;;;25.53;21.57
12963;BME280;6546;49.882;8.666;2023-05-03T06:24:32;101047.00;;;26.07;20.43
12963;BME280;6546;49.882;8.666;2023-05-03T06:26:58;101039.56;;;25.36;20.73
12963;BME280;6546;49.882;8.666;2023-05-03T06:29:25;101038.03;;;24.42;21.79
12963;BME280;6546;49.882;8.666;2023-05-03T06:31:52;101039.13;;;23.51;23.04
12963;BME280;6546;49.882;8.666;2023-05-03T06:34:20;101038.81;;;23.05;24.03
12963;BME280;6546;49.882;8.666;2023-05-03T06:36:48;101030.97;;;22.00;24.75
12963;BME280;6546;49.882;8.666;2023-05-03T06:39:14;101027.13;;;23.49;23.47
12963;BME280;6546;49.882;8.666;2023-05-03T06:41:42;101035.25;;;24.60;22.10
12963;BME280;6546;49.882;8.666;2023-05-03T06:44:08;101035.47;;;25.17;21.27
12963;BME280;6546;49.882;8.666;2023-05-03T06:46:35;101035.84;;;24.85;21.21
12963;BME280;6546;49.882;8.666;2023-05-03T06:49:02;101039.38;;;24.56;21.92
12963;BME280;6546;49.882;8.666;2023-05-03T06:51:31;101048.56;;;24.19;21.71
12963;BME280;6546;49.882;8.666;2023-05-03T06:53:59;101047.88;;;23.52;22.83
12963;BME280;6546;49.882;8.666;2023-05-03T06:56:31;101045.28;;;22.41;24.55
12963;BME280;6546;49.882;8.666;2023-05-03T06:58:58;101043.59;;;21.84;25.60
12963;BME280;6546;49.882;8.666;2023-05-03T07:01:25;101052.81;;;21.18;26.66
12963;BME280;6546;49.882;8.666;2023-05-03T07:03:51;101052.41;;;21.08;26.40
12963;BME280;6546;49.882;8.666;2023-05-03T07:06:18;101048.66;;;20.58;27.30
12963;BME280;6546;49.882;8.666;2023-05-03T07:08:49;101049.13;;;19.87;28.02
12963;BME280;6546;49.882;8.666;2023-05-03T07:11:15;101051.69;;;19.27;29.72
12963;BME280;6546;49.882;8.666;2023-05-03T07:13:42;101052.63;;;19.06;30.72
12963;BME280;6546;49.882;8.666;2023-05-03T07:16:09;101044.16;;;18.55;31.42
12963;BME280;6546;49.882;8.666;2023-05-03T07:18:35;101045.59;;;18.36;32.63
12963;BME280;6546;49.882;8.666;2023-05-03T07:21:02;101038.25;;;17.68;32.72
12963;BME280;6546;49.882;8.666;2023-05-03T07:23:33;101027.78;;;16.80;34.61
12963;BME280;6546;49.882;8.666;2023-05-03T07:26:01;101031.34;;;16.27;35.93
12963;BME280;6546;49.882;8.666;2023-05-03T07:28:28;101030.66;;;16.11;36.81
12963;BME280;6546;49.882;8.666;2023-05-03T07:30:54;101028.09;;;16.25;37.00
12963;BME280;6546;49.882;8.666;2023-05-03T07:33:21;101017.88;;;15.93;37.49
12963;BME280;6546;49.882;8.666;2023-05-03T07:35:48;101034.03;;;16.19;37.41
12963;BME280;6546;49.882;8.666;2023-05-03T07:38:15;101031.97;;;16.29;37.88
12963;BME280;6546;49.882;8.666;2023-05-03T07:40:41;101030.19;;;16.30;36.87
12963;BME280;6546;49.882;8.666;2023-05-03T07:43:10;101029.25;;;16.23;37.79
12963;BME280;6546;49.882;8.666;2023-05-03T07:45:36;101008.94;;;16.10;38.49
12963;BME280;6546;49.882;8.666;2023-05-03T07:48:03;101030.78;;;16.17;37.23
12963;BME280;6546;49.882;8.666;2023-05-03T07:50:30;101036.78;;;15.72;38.71
12963;BME280;6546;49.882;8.666;2023-05-03T07:52:57;101030.28;;;15.68;38.98
12963;BME280;6546;49.882;8.666;2023-05-03T07:55:24;101033.75;;;15.45;39.70
12963;BME280;6546;49.882;8.666;2023-05-03T07:57:50;101028.94;;;15.25;40.84
12963;BME280;6546;49.882;8.666;2023-05-03T08:00:24;101041.78;;;15.43;40.06
12963;BME280;6546;49.882;8.666;2023-05-03T08:02:51;101038.75;;;15.15;40.56
12963;BME280;6546;49.882;8.666;2023-05-03T08:05:18;101041.94;;;14.95;41.57
12963;BME280;6546;49.882;8.666;2023-05-03T08:07:45;101034.16;;;15.25;41.11
12963;BME280;6546;49.882;8.666;2023-05-03T08:10:11;101029.41;;;15.37;40.51
12963;BME280;6546;49.882;8.666;2023-05-03T08:12:39;101023.44;;;15.12;40.85
12963;BME280;6546;49.882;8.666;2023-05-03T08:15:07;101030.19;;;14.91;41.75
12963;BME280;6546;49.882;8.666;2023-05-03T08:17:40;101013.50;;;15.16;41.89
12963;BME280;6546;49.882;8.666;2023-05-03T08:20:08;101012.81;;;15.30;42.30
12963;BME280;6546;49.882;8.666;2023-05-03T08:22:35;101014.13;;;15.26;41.16
12963;BME280;6546;49.882;8.666;2023-05-03T08:25:02;101014.91;;;14.80;42.58
12963;BME280;6546;49.882;8.666;2023-05-03T08:27:29;101004.19;;;14.58;42.83
12963;BME280;6546;49.882;8.666;2023-05-03T08:29:57;101010.69;;;14.79;42.94
12963;BME280;6546;49.882;8.666;2023-05-03T08:32:24;101013.22;;;15.03;42.57
12963;BME280;6546;49.882;8.666;2023-05-03T08:34:53;101020.88;;;15.04;42.37
12963;BME280;6546;49.882;8.666;2023-05-03T08:37:20;101013.69;;;15.06;42.62
12963;BME280;6546;49.882;8.666;2023-05-03T08:39:49;101015.53;;;15.37;42.44
12963;BME280;6546;49.882;8.666;2023-05-03T08:42:16;101010.63;;;15.42;41.61
12963;BME280;6546;49.882;8.666;2023-05-03T08:44:44;101021.72;;;15.44;41.95
12963;BME280;6546;49.882;8.666;2023-05-03T08:47:15;101023.88;;;15.71;41.02
12963;BME280;6546;49.882;8.666;2023-05-03T08:49:42;101022.22;;;15.78;41.35
12963;BME280;6546;49.882;8.666;2023-05-03T08:52:13;101019.50;;;15.94;41.81
12963;BME280;6546;49.882;8.666;2023-05-03T08:54:40;101021.06;;;16.03;40.93
12963;BME280;6546;49.882;8.666;2023-05-03T08:57:11;101016.97;;;15.86;41.04
12963;BME280;6546;49.882;8.666;2023-05-03T08:59:46;101020.91;;;16.05;41.16
12963;BME280;6546;49.882;8.666;2023-05-03T09:02:13;101023.53;;;16.05;40.28
12963;BME280;6546;49.882;8.666;2023-05-03T09:04:40;101020.00;;;15.90;41.15
12963;BME280;6546;49.882;8.666;2023-05-03T09:07:07;101024.56;;;15.96;41.21
12963;BME280;6546;49.882;8.666;2023-05-03T09:09:36;101011.31;;;15.97;41.58
12963;BME280;6546;49.882;8.666;2023-05-03T09:12:03;101012.88;;;16.29;40.83
12963;BME280;6546;49.882;8.666;2023-05-03T09:14:30;101016.75;;;16.18;40.75
12963;BME280;6546;49.882;8.666;2023-05-03T09:17:12;101019.38;;;15.88;40.87
12963;BME280;6546;49.882;8.666;2023-05-03T09:19:48;101021.84;;;15.89;41.54
12963;BME280;6546;49.882;8.666;2023-05-03T09:22:15;101019.38;;;15.88;41.66
12963;BME280;6546;49.882;8.666;2023-05-03T09:24:50;101015.97;;;16.10;40.90
12963;BME280;6546;49.882;8.666;2023-05-03T09:27:17;101009.59;;;16.50;40.76
12963;BME280;6546;49.882;8.666;2023-05-03T09:29:45;101016.59;;;16.57;39.71
12963;BME280;6546;49.882;8.666;2023-05-03T09:32:13;101008.09;;;16.55;40.33
12963;BME280;6546;49.882;8.666;2023-05-03T09:34:40;101005.06;;;16.66;39.91
12963;BME280;6546;49.882;8.666;2023-05-03T09:37:06;101002.00;;;16.77;39.83
12963;BME280;6546;49.882;8.666;2023-05-03T09:39:33;100987.88;;;16.12;40.48
12963;BME280;6546;49.882;8.666;2023-05-03T09:42:11;100989.44;;;16.21;40.43
12963;BME280;6546;49.882;8.666;2023-05-03T09:44:42;100990.75;;;16.17;40.97
12963;BME280;6546;49.882;8.666;2023-05-03T09:47:10;100991.59;;;16.32;40.48
12963;BME280;6546;49.882;8.666;2023-05-03T09:49:37;100992.28;;;16.49;40.11
12963;BME280;6546;49.882;8.666;2023-05-03T09:52:04;100986.50;;;16.39;39.54
12963;BME280;6546;49.882;8.666;2023-05-03T09:54:32;100985.06;;;16.36;39.45
12963;BME280;6546;49.882;8.666;2023-05-03T09:57:00;100986.59;;;16.08;40.73
12963;BME280;6546;49.882;8.666;2023-05-03T09:59:30;100990.00;;;16.31;40.28
12963;BME280;6546;49.882;8.666;2023-05-03T10:01:59;100981.88;;;16.26;40.16
12963;BME280;6546;49.882;8.666;2023-05-03T10:04:30;100980.28;;;16.40;40.63
12963;BME280;6546;49.882;8.666;2023-05-03T10:07:01;100979.34;;;16.55;39.61
12963;BME280;6546;49.882;8.666;2023-05-03T10:09:31;100971.19;;;16.50;40.10
12963;BME280;6546;49.882;8.666;2023-05-03T10:12:00;100972.91;;;16.43;39.79
12963;BME280;6546;49.882;8.666;2023-05-03T10:14:31;100967.53;;;16.74;39.43
12963;BME280;6546;49.882;8.666;2023-05-03T10:16:59;100964.41;;;16.78;39.40
12963;BME280;6546;49.882;8.666;2023-05-03T10:19:32;100965.56;;;16.91;39.13
12963;BME280;6546;49.882;8.666;2023-05-03T10:22:02;100964.09;;;17.03;39.01
12963;BME280;6546;49.882;8.666;2023-05-03T10:24:30;100963.03;;;17.12;38.38
12963;BME280;6546;49.882;8.666;2023-05-03T10:26:58;100955.06;;;17.35;38.16
12963;BME280;6546;49.882;8.666;2023-05-03T10:29:45;100947.16;;;17.49;38.81
12963;BME280;6546;49.882;8.666;2023-05-03T10:32:30;100952.44;;;17.70;37.35
12963;BME280;6546;49.882;8.666;2023-05-03T10:34:59;100948.22;;;17.69;37.43
12963;BME280;6546;49.882;8.666;2023-05-03T10:37:28;100954.31;;;17.76;37.45
12963;BME280;6546;49.882;8.666;2023-05-03T10:39:55;100944.47;;;17.43;37.98
12963;BME280;6546;49.882;8.666;2023-05-03T10:42:23;100944.91;;;17.46;38.12
12963;BME280;6546;49.882;8.666;2023-05-03T10:44:53;100956.13;;;17.40;37.68
12963;BME280;6546;49.882;8.666;2023-05-03T10:47:21;100957.38;;;17.44;37.21
12963;BME280;6546;49.882;8.666;2023-05-03T10:52:49;100950.81;;;17.69;39.01
12963;BME280;6546;49.882;8.666;2023-05-03T10:55:17;100950.38;;;17.87;37.94
12963;BME280;6546;49.882;8.666;2023-05-03T10:57:46;100941.41;;;17.96;35.30
12963;BME280;6546;49.882;8.666;2023-05-03T11:00:18;100943.94;;;17.68;35.64
12963;BME280;6546;49.882;8.666;2023-05-03T11:03:07;100941.91;;;17.49;36.15
12963;BME280;6546;49.882;8.666;2023-05-03T11:05:35;100941.06;;;17.27;37.05
12963;BME280;6546;49.882;8.666;2023-05-03T11:08:10;100938.59;;;17.05;37.01
12963;BME280;6546;49.882;8.666;2023-05-03T11:10:37;100937.94;;;17.03;37.02
12963;BME280;6546;49.882;8.666;2023-05-03T11:13:04;100931.19;;;17.08;36.97
12963;BME280;6546;49.882;8.666;2023-05-03T11:15:32;100938.25;;;17.29;36.61
12963;BME280;6546;49.882;8.666;2023-05-03T11:17:59;100927.34;;;17.25;36.82
12963;BME280;6546;49.882;8.666;2023-05-03T11:20:26;100931.06;;;17.31;37.08
12963;BME280;6546;49.882;8.666;2023-05-03T11:22:53;100917.63;;;17.55;37.46
12963;BME280;6546;49.882;8.666;2023-05-03T11:25:19;100914.22;;;17.76;35.22
12963;BME280;6546;49.882;8.666;2023-05-03T11:27:46;100905.53;;;17.75;35.27
12963;BME280;6546;49.882;8.666;2023-05-03T11:30:13;100902.16;;;17.81;35.49
12963;BME280;6546;49.882;8.666;2023-05-03T11:32:42;100903.59;;;17.84;35.37
12963;BME280;6546;49.882;8.666;2023-05-03T11:35:09;100904.66;;;17.68;35.02
12963;BME280;6546;49.882;8.666;2023-05-03T11:37:38;100894.56;;;17.65;35.22
12963;BME280;6546;49.882;8.666;2023-05-03T11:40:06;100900.06;;;17.70;34.28
12963;BME280;6546;49.882;8.666;2023-05-03T11:42:49;100904.81;;;17.60;34.93
12963;BME280;6546;49.882;8.666;2023-05-03T11:45:16;100900.19;;;17.62;34.94
12963;BME280;6546;49.882;8.666;2023-05-03T11:47:44;100884.66;;;17.61;34.66
12963;BME280;6546;49.882;8.666;2023-05-03T11:50:11;100892.63;;;17.17;35.86
12963;BME280;6546;49.882;8.666;2023-05-03T11:52:38;100890.84;;;17.39;36.33
12963;BME280;6546;49.882;8.666;2023-05-03T11:55:06;100893.59;;;17.52;33.84
12963;BME280;6546;49.882;8.666;2023-05-03T11:57:34;100900.63;;;17.30;36.52
12963;BME280;6546;49.882;8.666;2023-05-03T12:00:12;100894.66;;;17.36;37.11
12963;BME280;6546;49.882;8.666;2023-05-03T12:02:42;100895.38;;;17.51;36.69
12963;BME280;6546;49.882;8.666;2023-05-03T12:05:10;100882.47;;;17.64;36.63
12963;BME280;6546;49.882;8.666;2023-05-03T12:07:37;100875.84;;;17.68;35.24
12963;BME280;6546;49.882;8.666;2023-05-03T12:10:14;100880.72;;;17.71;35.14
12963;BME280;6546;49.882;8.666;2023-05-03T12:12:53;100876.59;;;17.62;33.62
12963;BME280;6546;49.882;8.666;2023-05-03T12:15:31;100868.81;;;17.69;34.25
12963;BME280;6546;49.882;8.666;2023-05-03T12:17:59;100870.22;;;17.71;34.71
12963;BME280;6546;49.882;8.666;2023-05-03T12:20:28;100870.34;;;17.42;35.53
12963;BME280;6546;49.882;8.666;2023-05-03T12:22:57;100858.88;;;17.22;35.97
12963;BME280;6546;49.882;8.666;2023-05-03T12:25:25;100853.75;;;17.14;36.42
12963;BME280;6546;49.882;8.666;2023-05-03T12:27:52;100852.00;;;17.21;36.37
12963;BME280;6546;49.882;8.666;2023-05-03T12:30:19;100848.63;;;17.48;33.56
12963;BME280;6546;49.882;8.666;2023-05-03T12:32:46;100851.84;;;17.44;32.46
12963;BME280;6546;49.882;8.666;2023-05-03T12:35:13;100858.38;;;17.33;34.62
12963;BME280;6546;49.882;8.666;2023-05-03T12:37:41;100848.41;;;17.22;35.91
12963;BME280;6546;49.882;8.666;2023-05-03T12:40:09;100850.38;;;17.20;36.05
12963;BME280;6546;49.882;8.666;2023-05-03T12:42:36;100848.50;;;17.35;36.15
12963;BME280;6546;49.882;8.666;2023-05-03T12:45:03;100843.25;;;17.28;36.54
12963;BME280;6546;49.882;8.666;2023-05-03T12:47:30;100846.03;;;17.27;34.57
12963;BME280;6546;49.882;8.666;2023-05-03T12:49:57;100847.28;;;17.31;34.80
12963;BME280;6546;49.882;8.666;2023-05-03T12:52:23;100848.50;;;17.35;32.27
12963;BME280;6546;49.882;8.666;2023-05-03T12:54:51;100834.81;;;17.33;31.34
12963;BME280;6546;49.882;8.666;2023-05-03T12:57:18;100836.00;;;17.30;30.93
12963;BME280;6546;49.882;8.666;2023-05-03T12:59:45;100828.66;;;17.41;31.00
12963;BME280;6546;49.882;8.666;2023-05-03T13:02:14;100834.81;;;17.54;30.79
12963;BME280;6546;49.882;8.666;2023-05-03T13:04:41;100842.31;;;17.57;31.08
12963;BME280;6546;49.882;8.666;2023-05-03T13:07:08;100837.25;;;17.56;29.68
12963;BME280;6546;49.882;8.666;2023-05-03T13:09:34;100827.13;;;17.53;29.82
12963;BME280;6546;49.882;8.666;2023-05-03T13:12:03;100816.53;;;17.40;29.79
12963;BME280;6546;49.882;8.666;2023-05-03T13:14:29;100813.75;;;17.41;31.27